sensor_id;sensor_type;location;lat;lon;timestamp;P1;durP1;ratioP1;P2;durP2;ratioP2
25982;SDS011;13773;48.868;10.730;2023-11-19T00:02:08;11.73;;;10.07;;
25982;SDS011;13773;48.868;10.730;2023-11-19T00:04:37;12.10;;;10.03;;
25982;SDS011;13773;48.868;10.730;2023-11-19T00:07:06;11.10;;;9.60;;
25982;SDS011;13773;48.868;10.730;2023-11-19T00:09:33;13.50;;;10.33;;
25982;SDS011;13773;48.868;10.730;2023-11-19T00:12:01;12.77;;;10.00;;
25982;SDS011;13773;48.868;10.730;2023-11-19T00:14:29;12.17;;;9.80;;
25982;SDS011;13773;48.868;10.730;2023-11-19T00:16:55;11.40;;;9.70;;
25982;SDS011;13773;48.868;10.730;2023-11-19T00:19:21;12.40;;;10.17;;
25982;SDS011;13773;48.868;10.730;2023-11-19T00:21:47;12.80;;;10.93;;
25982;SDS011;13773;48.868;10.730;2023-11-19T00:24:13;13.40;;;10.50;;
25982;SDS011;13773;48.868;10.730;2023-11-19T00:26:41;10.70;;;9.37;;
25982;SDS011;13773;48.868;10.730;2023-11-19T00:29:07;13.17;;;10.73;;
25982;SDS011;13773;48.868;10.730;2023-11-19T00:31:33;15.20;;;10.13;;
25982;SDS011;13773;48.868;10.730;2023-11-19T00:33:59;13.73;;;10.83;;
25982;SDS011;13773;48.868;10.730;2023-11-19T00:36:24;12.90;;;10.07;;
25982;SDS011;13773;48.868;10.730;2023-11-19T00:38:50;12.40;;;10.60;;
25982;SDS011;13773;48.868;10.730;2023-11-19T00:41:19;11.43;;;9.83;;
25982;SDS011;13773;48.868;10.730;2023-11-19T00:43:45;14.03;;;10.23;;
25982;SDS011;13773;48.868;10.730;2023-11-19T00:46:11;13.53;;;10.60;;
25982;SDS011;13773;48.868;10.730;2023-11-19T00:48:37;12.30;;;10.10;;
25982;SDS011;13773;48.868;10.730;2023-11-19T00:51:03;12.17;;;10.40;;
25982;SDS011;13773;48.868;10.730;2023-11-19T00:53:31;14.13;;;11.00;;
25982;SDS011;13773;48.868;10.730;2023-11-19T00:55:58;13.20;;;10.30;;
25982;SDS011;13773;48.868;10.730;2023-11-19T00:58:25;13.73;;;10.57;;
25982;SDS011;13773;48.868;10.730;2023-11-19T01:00:50;12.10;;;10.17;;
25982;SDS011;13773;48.868;10.730;2023-11-19T01:03:16;12.43;;;9.97;;
25982;SDS011;13773;48.868;10.730;2023-11-19T01:05:42;13.70;;;10.60;;
25982;SDS011;13773;48.868;10.730;2023-11-19T01:08:09;13.93;;;10.33;;
25982;SDS011;13773;48.868;10.730;2023-11-19T01:10:36;12.70;;;10.37;;
25982;SDS011;13773;48.868;10.730;2023-11-19T01:13:02;13.17;;;10.87;;
25982;SDS011;13773;48.868;10.730;2023-11-19T01:15:30;11.40;;;10.17;;
25982;SDS011;13773;48.868;10.730;2023-11-19T01:17:57;12.80;;;10.53;;
25982;SDS011;13773;48.868;10.730;2023-11-19T01:20:22;13.60;;;10.30;;
25982;SDS011;13773;48.868;10.730;2023-11-19T01:22:48;13.00;;;10.13;;
25982;SDS011;13773;48.868;10.730;2023-11-19T01:25:14;11.83;;;10.13;;
25982;SDS011;13773;48.868;10.730;2023-11-19T01:27:40;11.83;;;10.30;;
25982;SDS011;13773;48.868;10.730;2023-11-19T01:30:06;13.53;;;10.93;;
25982;SDS011;13773;48.868;10.730;2023-11-19T01:32:35;11.60;;;10.40;;
25982;SDS011;13773;48.868;10.730;2023-11-19T01:35:02;11.13;;;9.80;;
25982;SDS011;13773;48.868;10.730;2023-11-19T01:37:29;12.90;;;10.10;;
25982;SDS011;13773;48.868;10.730;2023-11-19T01:39:56;12.57;;;10.17;;
25982;SDS011;13773;48.868;10.730;2023-11-19T01:42:22;13.53;;;10.00;;
25982;SDS011;13773;48.868;10.730;2023-11-19T01:44:59;11.03;;;9.67;;
25982;SDS011;13773;48.868;10.730;2023-11-19T01:47:29;11.67;;;10.43;;
25982;SDS011;13773;48.868;10.730;2023-11-19T01:49:56;13.73;;;10.70;;
25982;SDS011;13773;48.868;10.730;2023-11-19T01:52:22;12.87;;;10.33;;
25982;SDS011;13773;48.868;10.730;2023-11-19T01:54:49;11.30;;;9.53;;
25982;SDS011;13773;48.868;10.730;2023-11-19T01:57:17;13.33;;;10.23;;
25982;SDS011;13773;48.868;10.730;2023-11-19T01:59:43;12.23;;;10.10;;
25982;SDS011;13773;48.868;10.730;2023-11-19T02:02:09;12.30;;;10.43;;
25982;SDS011;13773;48.868;10.730;2023-11-19T02:04:35;11.37;;;9.50;;
25982;SDS011;13773;48.868;10.730;2023-11-19T02:07:01;12.37;;;10.07;;
25982;SDS011;13773;48.868;10.730;2023-11-19T02:09:27;11.17;;;9.17;;
25982;SDS011;13773;48.868;10.730;2023-11-19T02:11:53;10.90;;;9.30;;
25982;SDS011;13773;48.868;10.730;2023-11-19T02:14:21;10.60;;;9.03;;
25982;SDS011;13773;48.868;10.730;2023-11-19T02:16:51;10.63;;;9.17;;
25982;SDS011;13773;48.868;10.730;2023-11-19T02:19:20;10.63;;;9.53;;
25982;SDS011;13773;48.868;10.730;2023-11-19T02:21:45;11.07;;;9.00;;
25982;SDS011;13773;48.868;10.730;2023-11-19T02:24:11;10.53;;;8.50;;
25982;SDS011;13773;48.868;10.730;2023-11-19T02:29:33;9.70;;;8.27;;
25982;SDS011;13773;48.868;10.730;2023-11-19T02:32:00;9.20;;;8.10;;
25982;SDS011;13773;48.868;10.730;2023-11-19T02:34:28;9.80;;;7.90;;
25982;SDS011;13773;48.868;10.730;2023-11-19T02:36:54;11.07;;;8.17;;
25982;SDS011;13773;48.868;10.730;2023-11-19T02:39:19;10.77;;;8.40;;
25982;SDS011;13773;48.868;10.730;2023-11-19T02:41:47;8.43;;;7.40;;
25982;SDS011;13773;48.868;10.730;2023-11-19T02:44:15;8.23;;;7.43;;
25982;SDS011;13773;48.868;10.730;2023-11-19T02:46:41;8.57;;;7.40;;
25982;SDS011;13773;48.868;10.730;2023-11-19T02:49:07;9.27;;;7.07;;
25982;SDS011;13773;48.868;10.730;2023-11-19T02:51:33;8.97;;;7.60;;
25982;SDS011;13773;48.868;10.730;2023-11-19T02:53:59;9.10;;;7.60;;
25982;SDS011;13773;48.868;10.730;2023-11-19T02:56:25;8.00;;;7.20;;
25982;SDS011;13773;48.868;10.730;2023-11-19T02:58:51;9.00;;;7.40;;
25982;SDS011;13773;48.868;10.730;2023-11-19T03:01:24;9.43;;;7.90;;
25982;SDS011;13773;48.868;10.730;2023-11-19T03:03:59;8.13;;;7.33;;
25982;SDS011;13773;48.868;10.730;2023-11-19T03:06:26;8.00;;;7.17;;
25982;SDS011;13773;48.868;10.730;2023-11-19T03:08:54;8.60;;;7.60;;
25982;SDS011;13773;48.868;10.730;2023-11-19T03:11:20;7.73;;;6.93;;
25982;SDS011;13773;48.868;10.730;2023-11-19T03:13:46;9.23;;;7.73;;
25982;SDS011;13773;48.868;10.730;2023-11-19T03:16:12;8.33;;;7.20;;
25982;SDS011;13773;48.868;10.730;2023-11-19T03:18:38;8.57;;;7.37;;
25982;SDS011;13773;48.868;10.730;2023-11-19T03:21:05;7.90;;;7.10;;
25982;SDS011;13773;48.868;10.730;2023-11-19T03:23:32;9.27;;;7.50;;
25982;SDS011;13773;48.868;10.730;2023-11-19T03:25:58;9.17;;;7.60;;
25982;SDS011;13773;48.868;10.730;2023-11-19T03:28:28;8.03;;;7.10;;
25982;SDS011;13773;48.868;10.730;2023-11-19T03:30:54;8.00;;;7.03;;
25982;SDS011;13773;48.868;10.730;2023-11-19T03:33:20;8.23;;;7.37;;
25982;SDS011;13773;48.868;10.730;2023-11-19T03:35:45;8.47;;;7.37;;
25982;SDS011;13773;48.868;10.730;2023-11-19T03:38:11;8.97;;;8.03;;
25982;SDS011;13773;48.868;10.730;2023-11-19T03:40:37;8.97;;;7.50;;
25982;SDS011;13773;48.868;10.730;2023-11-19T03:43:04;8.17;;;6.90;;
25982;SDS011;13773;48.868;10.730;2023-11-19T03:45:30;8.20;;;7.03;;
25982;SDS011;13773;48.868;10.730;2023-11-19T03:47:56;9.67;;;7.50;;
25982;SDS011;13773;48.868;10.730;2023-11-19T03:50:21;8.53;;;7.17;;
25982;SDS011;13773;48.868;10.730;2023-11-19T03:52:47;8.13;;;7.33;;
25982;SDS011;13773;48.868;10.730;2023-11-19T03:55:14;9.20;;;7.43;;
25982;SDS011;13773;48.868;10.730;2023-11-19T03:57:40;9.17;;;7.40;;
25982;SDS011;13773;48.868;10.730;2023-11-19T04:00:06;8.70;;;7.70;;
25982;SDS011;13773;48.868;10.730;2023-11-19T04:02:35;9.30;;;8.13;;
25982;SDS011;13773;48.868;10.730;2023-11-19T04:05:01;8.67;;;7.03;;
25982;SDS011;13773;48.868;10.730;2023-11-19T04:07:28;11.37;;;7.93;;
25982;SDS011;13773;48.868;10.730;2023-11-19T04:09:54;8.33;;;7.27;;
25982;SDS011;13773;48.868;10.730;2023-11-19T04:12:20;8.70;;;7.10;;
25982;SDS011;13773;48.868;10.730;2023-11-19T04:14:47;8.17;;;6.90;;
25982;SDS011;13773;48.868;10.730;2023-11-19T04:17:12;7.57;;;6.47;;
25982;SDS011;13773;48.868;10.730;2023-11-19T04:19:38;7.50;;;6.80;;
25982;SDS011;13773;48.868;10.730;2023-11-19T04:22:06;9.47;;;6.60;;
25982;SDS011;13773;48.868;10.730;2023-11-19T04:24:33;7.73;;;6.63;;
25982;SDS011;13773;48.868;10.730;2023-11-19T04:26:59;8.07;;;6.87;;
25982;SDS011;13773;48.868;10.730;2023-11-19T04:29:25;7.33;;;6.27;;
25982;SDS011;13773;48.868;10.730;2023-11-19T04:31:51;8.43;;;7.40;;
25982;SDS011;13773;48.868;10.730;2023-11-19T04:34:16;7.53;;;6.73;;
25982;SDS011;13773;48.868;10.730;2023-11-19T04:36:42;7.87;;;6.37;;
25982;SDS011;13773;48.868;10.730;2023-11-19T04:39:08;7.57;;;6.53;;
25982;SDS011;13773;48.868;10.730;2023-11-19T04:41:37;7.40;;;6.60;;
25982;SDS011;13773;48.868;10.730;2023-11-19T04:44:14;6.93;;;6.20;;
25982;SDS011;13773;48.868;10.730;2023-11-19T04:46:41;6.27;;;5.53;;
25982;SDS011;13773;48.868;10.730;2023-11-19T04:49:09;6.37;;;5.63;;
25982;SDS011;13773;48.868;10.730;2023-11-19T04:51:42;6.33;;;5.73;;
25982;SDS011;13773;48.868;10.730;2023-11-19T04:54:08;7.00;;;6.30;;
25982;SDS011;13773;48.868;10.730;2023-11-19T04:56:38;6.27;;;5.67;;
25982;SDS011;13773;48.868;10.730;2023-11-19T04:59:04;6.00;;;5.33;;
25982;SDS011;13773;48.868;10.730;2023-11-19T05:01:34;5.70;;;5.13;;
25982;SDS011;13773;48.868;10.730;2023-11-19T05:04:00;5.67;;;5.10;;
25982;SDS011;13773;48.868;10.730;2023-11-19T05:06:30;6.80;;;5.03;;
25982;SDS011;13773;48.868;10.730;2023-11-19T05:08:58;6.57;;;5.63;;
25982;SDS011;13773;48.868;10.730;2023-11-19T05:11:26;6.07;;;5.17;;
25982;SDS011;13773;48.868;10.730;2023-11-19T05:13:53;5.77;;;4.90;;
25982;SDS011;13773;48.868;10.730;2023-11-19T05:16:19;5.70;;;4.77;;
25982;SDS011;13773;48.868;10.730;2023-11-19T05:18:45;5.73;;;5.13;;
25982;SDS011;13773;48.868;10.730;2023-11-19T05:21:12;5.80;;;5.20;;
25982;SDS011;13773;48.868;10.730;2023-11-19T05:23:38;5.10;;;4.60;;
25982;SDS011;13773;48.868;10.730;2023-11-19T05:26:04;5.07;;;4.57;;
25982;SDS011;13773;48.868;10.730;2023-11-19T05:28:30;5.43;;;4.90;;
25982;SDS011;13773;48.868;10.730;2023-11-19T05:30:56;5.60;;;5.00;;
25982;SDS011;13773;48.868;10.730;2023-11-19T05:33:21;6.73;;;4.83;;
25982;SDS011;13773;48.868;10.730;2023-11-19T05:35:47;6.53;;;4.90;;
25982;SDS011;13773;48.868;10.730;2023-11-19T05:38:13;6.00;;;5.20;;
25982;SDS011;13773;48.868;10.730;2023-11-19T05:40:39;5.00;;;4.50;;
25982;SDS011;13773;48.868;10.730;2023-11-19T05:43:06;5.57;;;4.93;;
25982;SDS011;13773;48.868;10.730;2023-11-19T05:45:31;5.13;;;4.63;;
25982;SDS011;13773;48.868;10.730;2023-11-19T05:47:57;5.17;;;4.67;;
25982;SDS011;13773;48.868;10.730;2023-11-19T05:50:23;6.27;;;4.77;;
25982;SDS011;13773;48.868;10.730;2023-11-19T05:52:49;5.00;;;4.50;;
25982;SDS011;13773;48.868;10.730;2023-11-19T05:55:15;6.97;;;5.30;;
25982;SDS011;13773;48.868;10.730;2023-11-19T05:57:41;5.97;;;5.03;;
25982;SDS011;13773;48.868;10.730;2023-11-19T06:00:07;7.00;;;5.27;;
25982;SDS011;13773;48.868;10.730;2023-11-19T06:02:33;5.67;;;5.07;;
25982;SDS011;13773;48.868;10.730;2023-11-19T06:04:59;5.40;;;4.90;;
25982;SDS011;13773;48.868;10.730;2023-11-19T06:07:26;5.77;;;4.97;;
25982;SDS011;13773;48.868;10.730;2023-11-19T06:09:52;5.20;;;4.67;;
25982;SDS011;13773;48.868;10.730;2023-11-19T06:12:18;7.53;;;4.93;;
25982;SDS011;13773;48.868;10.730;2023-11-19T06:14:44;5.40;;;4.53;;
25982;SDS011;13773;48.868;10.730;2023-11-19T06:17:09;5.27;;;4.77;;
25982;SDS011;13773;48.868;10.730;2023-11-19T06:19:36;4.70;;;4.30;;
25982;SDS011;13773;48.868;10.730;2023-11-19T06:22:03;4.20;;;3.80;;
25982;SDS011;13773;48.868;10.730;2023-11-19T06:24:29;5.40;;;4.17;;
25982;SDS011;13773;48.868;10.730;2023-11-19T06:26:54;4.30;;;3.90;;
25982;SDS011;13773;48.868;10.730;2023-11-19T06:29:20;4.03;;;3.63;;
25982;SDS011;13773;48.868;10.730;2023-11-19T06:31:46;4.43;;;3.70;;
25982;SDS011;13773;48.868;10.730;2023-11-19T06:34:13;5.20;;;3.83;;
25982;SDS011;13773;48.868;10.730;2023-11-19T06:36:39;4.07;;;3.67;;
25982;SDS011;13773;48.868;10.730;2023-11-19T06:39:05;4.27;;;3.27;;
25982;SDS011;13773;48.868;10.730;2023-11-19T06:41:31;3.97;;;3.50;;
25982;SDS011;13773;48.868;10.730;2023-11-19T06:43:56;4.07;;;3.17;;
25982;SDS011;13773;48.868;10.730;2023-11-19T06:46:22;3.73;;;3.43;;
25982;SDS011;13773;48.868;10.730;2023-11-19T06:48:48;3.97;;;3.10;;
25982;SDS011;13773;48.868;10.730;2023-11-19T06:51:13;3.70;;;3.40;;
25982;SDS011;13773;48.868;10.730;2023-11-19T06:53:41;4.17;;;3.30;;
25982;SDS011;13773;48.868;10.730;2023-11-19T06:56:24;4.03;;;3.13;;
25982;SDS011;13773;48.868;10.730;2023-11-19T06:58:50;3.87;;;3.47;;
25982;SDS011;13773;48.868;10.730;2023-11-19T07:01:17;3.33;;;3.03;;
25982;SDS011;13773;48.868;10.730;2023-11-19T07:03:44;3.80;;;3.40;;
25982;SDS011;13773;48.868;10.730;2023-11-19T07:06:13;4.17;;;3.57;;
25982;SDS011;13773;48.868;10.730;2023-11-19T07:08:42;3.83;;;3.40;;
25982;SDS011;13773;48.868;10.730;2023-11-19T07:11:12;4.63;;;4.23;;
25982;SDS011;13773;48.868;10.730;2023-11-19T07:13:39;5.20;;;4.20;;
25982;SDS011;13773;48.868;10.730;2023-11-19T07:16:06;4.63;;;4.13;;
25982;SDS011;13773;48.868;10.730;2023-11-19T07:18:35;4.27;;;3.87;;
25982;SDS011;13773;48.868;10.730;2023-11-19T07:21:00;4.50;;;3.80;;
25982;SDS011;13773;48.868;10.730;2023-11-19T07:23:28;3.80;;;3.50;;
25982;SDS011;13773;48.868;10.730;2023-11-19T07:25:53;3.67;;;3.37;;
25982;SDS011;13773;48.868;10.730;2023-11-19T07:28:19;3.57;;;3.27;;
25982;SDS011;13773;48.868;10.730;2023-11-19T07:30:45;3.87;;;3.53;;
25982;SDS011;13773;48.868;10.730;2023-11-19T07:33:11;4.30;;;3.73;;
25982;SDS011;13773;48.868;10.730;2023-11-19T07:35:38;4.60;;;3.50;;
25982;SDS011;13773;48.868;10.730;2023-11-19T07:38:06;4.33;;;3.93;;
25982;SDS011;13773;48.868;10.730;2023-11-19T07:40:32;4.73;;;4.23;;
25982;SDS011;13773;48.868;10.730;2023-11-19T07:42:57;4.83;;;4.33;;
25982;SDS011;13773;48.868;10.730;2023-11-19T07:45:23;5.17;;;4.67;;
25982;SDS011;13773;48.868;10.730;2023-11-19T07:47:48;5.17;;;4.67;;
25982;SDS011;13773;48.868;10.730;2023-11-19T07:50:16;5.43;;;4.93;;
25982;SDS011;13773;48.868;10.730;2023-11-19T07:52:44;5.93;;;5.00;;
25982;SDS011;13773;48.868;10.730;2023-11-19T07:55:10;6.70;;;6.10;;
25982;SDS011;13773;48.868;10.730;2023-11-19T07:57:35;6.70;;;6.10;;
25982;SDS011;13773;48.868;10.730;2023-11-19T08:00:01;6.67;;;6.03;;
25982;SDS011;13773;48.868;10.730;2023-11-19T08:02:28;7.13;;;6.37;;
25982;SDS011;13773;48.868;10.730;2023-11-19T08:04:53;6.87;;;6.03;;
25982;SDS011;13773;48.868;10.730;2023-11-19T08:07:20;6.90;;;6.20;;
25982;SDS011;13773;48.868;10.730;2023-11-19T08:09:47;7.47;;;6.77;;
25982;SDS011;13773;48.868;10.730;2023-11-19T08:12:12;7.27;;;6.57;;
25982;SDS011;13773;48.868;10.730;2023-11-19T08:14:40;7.87;;;7.00;;
25982;SDS011;13773;48.868;10.730;2023-11-19T08:17:06;7.83;;;6.20;;
25982;SDS011;13773;48.868;10.730;2023-11-19T08:19:32;6.47;;;5.87;;
25982;SDS011;13773;48.868;10.730;2023-11-19T08:21:58;6.40;;;5.80;;
25982;SDS011;13773;48.868;10.730;2023-11-19T08:24:23;5.67;;;5.17;;
25982;SDS011;13773;48.868;10.730;2023-11-19T08:26:49;6.53;;;5.90;;
25982;SDS011;13773;48.868;10.730;2023-11-19T08:29:15;7.17;;;5.53;;
25982;SDS011;13773;48.868;10.730;2023-11-19T08:31:40;5.47;;;4.93;;
25982;SDS011;13773;48.868;10.730;2023-11-19T08:34:06;5.30;;;4.80;;
25982;SDS011;13773;48.868;10.730;2023-11-19T08:36:35;5.33;;;4.83;;
25982;SDS011;13773;48.868;10.730;2023-11-19T08:39:02;4.90;;;4.50;;
25982;SDS011;13773;48.868;10.730;2023-11-19T08:41:28;5.70;;;5.20;;
25982;SDS011;13773;48.868;10.730;2023-11-19T08:43:54;5.60;;;5.10;;
25982;SDS011;13773;48.868;10.730;2023-11-19T08:46:19;5.37;;;4.87;;
25982;SDS011;13773;48.868;10.730;2023-11-19T08:48:45;5.10;;;4.60;;
25982;SDS011;13773;48.868;10.730;2023-11-19T08:51:11;4.80;;;4.40;;
25982;SDS011;13773;48.868;10.730;2023-11-19T08:53:37;4.67;;;4.27;;
25982;SDS011;13773;48.868;10.730;2023-11-19T08:56:03;3.90;;;3.60;;
25982;SDS011;13773;48.868;10.730;2023-11-19T08:58:30;3.90;;;3.60;;
25982;SDS011;13773;48.868;10.730;2023-11-19T09:00:56;4.27;;;3.93;;
25982;SDS011;13773;48.868;10.730;2023-11-19T09:03:21;4.43;;;2.73;;
25982;SDS011;13773;48.868;10.730;2023-11-19T09:05:47;3.50;;;3.20;;
25982;SDS011;13773;48.868;10.730;2023-11-19T09:08:13;3.13;;;2.83;;
25982;SDS011;13773;48.868;10.730;2023-11-19T09:10:38;2.70;;;2.50;;
25982;SDS011;13773;48.868;10.730;2023-11-19T09:13:04;2.90;;;2.70;;
25982;SDS011;13773;48.868;10.730;2023-11-19T09:15:29;3.00;;;2.77;;
25982;SDS011;13773;48.868;10.730;2023-11-19T09:17:55;3.17;;;2.80;;
25982;SDS011;13773;48.868;10.730;2023-11-19T09:20:21;3.53;;;2.77;;
25982;SDS011;13773;48.868;10.730;2023-11-19T09:22:47;3.17;;;2.87;;
25982;SDS011;13773;48.868;10.730;2023-11-19T09:25:13;3.20;;;2.80;;
25982;SDS011;13773;48.868;10.730;2023-11-19T09:27:42;3.40;;;3.10;;
25982;SDS011;13773;48.868;10.730;2023-11-19T09:30:08;2.90;;;2.70;;
25982;SDS011;13773;48.868;10.730;2023-11-19T09:32:34;2.93;;;2.67;;
25982;SDS011;13773;48.868;10.730;2023-11-19T09:35:00;2.67;;;2.47;;
25982;SDS011;13773;48.868;10.730;2023-11-19T09:37:27;3.43;;;3.13;;
25982;SDS011;13773;48.868;10.730;2023-11-19T09:39:53;3.20;;;2.90;;
25982;SDS011;13773;48.868;10.730;2023-11-19T09:42:19;2.80;;;2.53;;
25982;SDS011;13773;48.868;10.730;2023-11-19T09:44:45;3.53;;;3.00;;
25982;SDS011;13773;48.868;10.730;2023-11-19T09:47:12;2.90;;;2.67;;
25982;SDS011;13773;48.868;10.730;2023-11-19T09:49:39;2.80;;;2.60;;
25982;SDS011;13773;48.868;10.730;2023-11-19T09:52:05;2.97;;;2.77;;
25982;SDS011;13773;48.868;10.730;2023-11-19T09:54:31;2.80;;;2.60;;
25982;SDS011;13773;48.868;10.730;2023-11-19T09:56:57;3.17;;;2.90;;
25982;SDS011;13773;48.868;10.730;2023-11-19T09:59:27;3.40;;;3.10;;
25982;SDS011;13773;48.868;10.730;2023-11-19T10:01:55;2.80;;;2.60;;
25982;SDS011;13773;48.868;10.730;2023-11-19T10:04:21;2.93;;;2.33;;
25982;SDS011;13773;48.868;10.730;2023-11-19T10:06:49;3.03;;;2.83;;
25982;SDS011;13773;48.868;10.730;2023-11-19T10:09:16;2.60;;;2.40;;
25982;SDS011;13773;48.868;10.730;2023-11-19T10:11:42;3.23;;;2.93;;
25982;SDS011;13773;48.868;10.730;2023-11-19T10:14:08;3.50;;;2.80;;
25982;SDS011;13773;48.868;10.730;2023-11-19T10:16:34;3.23;;;3.03;;
25982;SDS011;13773;48.868;10.730;2023-11-19T10:19:00;2.90;;;2.70;;
25982;SDS011;13773;48.868;10.730;2023-11-19T10:21:26;3.00;;;2.80;;
25982;SDS011;13773;48.868;10.730;2023-11-19T10:23:53;2.97;;;2.70;;
25982;SDS011;13773;48.868;10.730;2023-11-19T10:26:25;4.23;;;3.30;;
25982;SDS011;13773;48.868;10.730;2023-11-19T10:28:52;3.20;;;2.90;;
25982;SDS011;13773;48.868;10.730;2023-11-19T10:31:18;2.50;;;2.30;;
25982;SDS011;13773;48.868;10.730;2023-11-19T10:33:49;3.97;;;2.93;;
25982;SDS011;13773;48.868;10.730;2023-11-19T10:36:15;2.93;;;2.67;;
25982;SDS011;13773;48.868;10.730;2023-11-19T10:38:51;2.53;;;2.33;;
25982;SDS011;13773;48.868;10.730;2023-11-19T10:41:28;2.80;;;2.50;;
25982;SDS011;13773;48.868;10.730;2023-11-19T10:43:55;2.43;;;2.23;;
25982;SDS011;13773;48.868;10.730;2023-11-19T10:46:21;2.30;;;2.10;;
25982;SDS011;13773;48.868;10.730;2023-11-19T10:48:48;3.03;;;2.30;;
25982;SDS011;13773;48.868;10.730;2023-11-19T10:51:17;2.37;;;1.97;;
25982;SDS011;13773;48.868;10.730;2023-11-19T10:53:49;2.10;;;1.90;;
25982;SDS011;13773;48.868;10.730;2023-11-19T10:56:17;2.07;;;1.87;;
25982;SDS011;13773;48.868;10.730;2023-11-19T10:58:50;2.70;;;1.70;;
25982;SDS011;13773;48.868;10.730;2023-11-19T11:01:19;2.33;;;1.30;;
25982;SDS011;13773;48.868;10.730;2023-11-19T11:03:48;2.07;;;1.60;;
25982;SDS011;13773;48.868;10.730;2023-11-19T11:06:19;1.70;;;1.60;;
25982;SDS011;13773;48.868;10.730;2023-11-19T11:08:45;2.10;;;1.70;;
25982;SDS011;13773;48.868;10.730;2023-11-19T11:11:13;2.17;;;1.87;;
25982;SDS011;13773;48.868;10.730;2023-11-19T11:13:42;2.73;;;2.47;;
25982;SDS011;13773;48.868;10.730;2023-11-19T11:16:09;2.00;;;1.90;;
25982;SDS011;13773;48.868;10.730;2023-11-19T11:18:36;2.40;;;2.17;;
25982;SDS011;13773;48.868;10.730;2023-11-19T11:21:03;3.10;;;2.40;;
25982;SDS011;13773;48.868;10.730;2023-11-19T11:29:00;1.63;;;1.27;;
25982;SDS011;13773;48.868;10.730;2023-11-19T11:31:36;2.70;;;1.33;;
25982;SDS011;13773;48.868;10.730;2023-11-19T11:39:34;3.37;;;1.50;;
25982;SDS011;13773;48.868;10.730;2023-11-19T11:53:21;2.50;;;1.07;;
25982;SDS011;13773;48.868;10.730;2023-11-19T11:55:34;2.23;;;1.10;;
25982;SDS011;13773;48.868;10.730;2023-11-19T11:58:03;1.60;;;1.13;;
25982;SDS011;13773;48.868;10.730;2023-11-19T12:00:30;1.50;;;1.00;;
25982;SDS011;13773;48.868;10.730;2023-11-19T12:03:04;1.40;;;0.80;;
25982;SDS011;13773;48.868;10.730;2023-11-19T12:05:31;1.77;;;1.10;;
25982;SDS011;13773;48.868;10.730;2023-11-19T12:08:02;1.37;;;1.00;;
25982;SDS011;13773;48.868;10.730;2023-11-19T12:10:32;2.53;;;1.40;;
25982;SDS011;13773;48.868;10.730;2023-11-19T12:13:03;2.50;;;1.10;;
25982;SDS011;13773;48.868;10.730;2023-11-19T12:15:32;2.17;;;1.10;;
25982;SDS011;13773;48.868;10.730;2023-11-19T12:17:58;1.00;;;0.80;;
25982;SDS011;13773;48.868;10.730;2023-11-19T12:20:24;1.83;;;0.60;;
25982;SDS011;13773;48.868;10.730;2023-11-19T12:22:51;2.57;;;1.40;;
25982;SDS011;13773;48.868;10.730;2023-11-19T12:25:18;1.50;;;0.80;;
25982;SDS011;13773;48.868;10.730;2023-11-19T12:27:51;1.63;;;0.80;;
25982;SDS011;13773;48.868;10.730;2023-11-19T12:30:21;3.33;;;0.80;;
25982;SDS011;13773;48.868;10.730;2023-11-19T12:32:48;1.47;;;0.80;;
25982;SDS011;13773;48.868;10.730;2023-11-19T12:35:14;1.67;;;1.10;;
25982;SDS011;13773;48.868;10.730;2023-11-19T12:37:43;0.83;;;0.60;;
25982;SDS011;13773;48.868;10.730;2023-11-19T12:40:19;1.50;;;1.20;;
25982;SDS011;13773;48.868;10.730;2023-11-19T12:42:51;1.43;;;0.80;;
25982;SDS011;13773;48.868;10.730;2023-11-19T12:45:18;1.40;;;0.50;;
25982;SDS011;13773;48.868;10.730;2023-11-19T12:47:46;1.67;;;0.77;;
25982;SDS011;13773;48.868;10.730;2023-11-19T12:50:12;0.80;;;0.70;;
25982;SDS011;13773;48.868;10.730;2023-11-19T12:52:38;0.90;;;0.60;;
25982;SDS011;13773;48.868;10.730;2023-11-19T12:55:04;1.00;;;0.90;;
25982;SDS011;13773;48.868;10.730;2023-11-19T12:57:48;1.13;;;0.70;;
25982;SDS011;13773;48.868;10.730;2023-11-19T13:00:21;2.43;;;0.90;;
25982;SDS011;13773;48.868;10.730;2023-11-19T13:02:49;0.83;;;0.60;;
25982;SDS011;13773;48.868;10.730;2023-11-19T13:05:26;1.00;;;0.90;;
25982;SDS011;13773;48.868;10.730;2023-11-19T13:10:28;1.50;;;0.70;;
25982;SDS011;13773;48.868;10.730;2023-11-19T13:15:30;1.63;;;0.70;;
25982;SDS011;13773;48.868;10.730;2023-11-19T13:17:57;2.20;;;0.80;;
25982;SDS011;13773;48.868;10.730;2023-11-19T13:20:23;1.80;;;0.90;;
25982;SDS011;13773;48.868;10.730;2023-11-19T13:22:58;2.13;;;1.20;;
25982;SDS011;13773;48.868;10.730;2023-11-19T13:25:24;0.63;;;0.63;;
25982;SDS011;13773;48.868;10.730;2023-11-19T13:27:50;1.67;;;0.80;;
25982;SDS011;13773;48.868;10.730;2023-11-19T13:30:16;1.37;;;1.10;;
25982;SDS011;13773;48.868;10.730;2023-11-19T13:32:42;1.40;;;0.80;;
25982;SDS011;13773;48.868;10.730;2023-11-19T13:35:11;2.13;;;0.90;;
25982;SDS011;13773;48.868;10.730;2023-11-19T13:37:37;1.10;;;0.70;;
25982;SDS011;13773;48.868;10.730;2023-11-19T13:40:04;3.77;;;0.97;;
25982;SDS011;13773;48.868;10.730;2023-11-19T13:42:30;1.40;;;0.87;;
25982;SDS011;13773;48.868;10.730;2023-11-19T13:44:56;1.77;;;0.70;;
25982;SDS011;13773;48.868;10.730;2023-11-19T13:47:21;1.60;;;1.30;;
25982;SDS011;13773;48.868;10.730;2023-11-19T13:49:48;1.97;;;0.83;;
25982;SDS011;13773;48.868;10.730;2023-11-19T13:52:14;2.10;;;0.93;;
25982;SDS011;13773;48.868;10.730;2023-11-19T13:54:40;1.10;;;0.80;;
25982;SDS011;13773;48.868;10.730;2023-11-19T13:57:06;1.63;;;0.60;;
25982;SDS011;13773;48.868;10.730;2023-11-19T13:59:31;1.63;;;0.83;;
25982;SDS011;13773;48.868;10.730;2023-11-19T14:01:57;2.03;;;0.70;;
25982;SDS011;13773;48.868;10.730;2023-11-19T14:04:23;0.93;;;0.67;;
25982;SDS011;13773;48.868;10.730;2023-11-19T14:06:50;1.90;;;0.90;;
25982;SDS011;13773;48.868;10.730;2023-11-19T14:09:15;2.83;;;1.30;;
25982;SDS011;13773;48.868;10.730;2023-11-19T14:11:42;1.33;;;0.77;;
25982;SDS011;13773;48.868;10.730;2023-11-19T14:14:08;1.00;;;0.60;;
25982;SDS011;13773;48.868;10.730;2023-11-19T14:16:34;1.73;;;0.90;;
25982;SDS011;13773;48.868;10.730;2023-11-19T14:19:00;3.70;;;1.00;;
25982;SDS011;13773;48.868;10.730;2023-11-19T14:21:25;1.43;;;0.67;;
25982;SDS011;13773;48.868;10.730;2023-11-19T14:23:51;1.10;;;0.67;;
25982;SDS011;13773;48.868;10.730;2023-11-19T14:26:18;1.10;;;0.90;;
25982;SDS011;13773;48.868;10.730;2023-11-19T14:28:43;1.60;;;0.70;;
25982;SDS011;13773;48.868;10.730;2023-11-19T14:31:09;0.93;;;0.50;;
25982;SDS011;13773;48.868;10.730;2023-11-19T14:33:35;1.57;;;0.80;;
25982;SDS011;13773;48.868;10.730;2023-11-19T14:36:03;1.50;;;0.60;;
25982;SDS011;13773;48.868;10.730;2023-11-19T14:38:29;2.70;;;0.83;;
25982;SDS011;13773;48.868;10.730;2023-11-19T14:40:55;1.50;;;0.70;;
25982;SDS011;13773;48.868;10.730;2023-11-19T14:43:21;0.97;;;0.70;;
25982;SDS011;13773;48.868;10.730;2023-11-19T14:45:47;1.37;;;0.50;;
25982;SDS011;13773;48.868;10.730;2023-11-19T14:48:12;0.93;;;0.60;;
25982;SDS011;13773;48.868;10.730;2023-11-19T14:50:38;1.77;;;0.77;;
25982;SDS011;13773;48.868;10.730;2023-11-19T14:53:04;1.10;;;0.70;;
25982;SDS011;13773;48.868;10.730;2023-11-19T14:55:30;2.53;;;1.00;;
25982;SDS011;13773;48.868;10.730;2023-11-19T14:57:55;2.23;;;1.07;;
25982;SDS011;13773;48.868;10.730;2023-11-19T15:00:22;1.07;;;0.80;;